createdAt,value
2022-09-13T00:01:07.942Z,99662.09
2022-09-13T00:03:36.540Z,99643.88
2022-09-13T00:06:13.034Z,99644.81
2022-09-13T00:08:42.880Z,99635.31
2022-09-13T00:11:18.355Z,99632.56
2022-09-13T00:13:46.624Z,99635.03
2022-09-13T00:16:19.875Z,99646.19
2022-09-13T00:18:48.731Z,99642.63
2022-09-13T00:21:22.358Z,99637.78
2022-09-13T00:23:52.047Z,99631.06
2022-09-13T00:26:23.329Z,99634.50
2022-09-13T00:28:52.637Z,99632.31
2022-09-13T00:31:23.361Z,99630.25
2022-09-13T00:52:16.169Z,99599.72
2022-09-13T00:54:50.327Z,99605.91
2022-09-13T00:57:19.833Z,99610.72
2022-09-13T00:59:53.921Z,99610.34
2022-09-13T01:02:23.085Z,99608.41
2022-09-13T01:10:40.387Z,99585.53
2022-09-13T01:13:15.193Z,99588.72
2022-09-13T01:15:46.366Z,99577.59
2022-09-13T01:18:15.277Z,99580.88
2022-09-13T01:20:59.208Z,99592.03
2022-09-13T01:23:52.075Z,99598.34
2022-09-13T01:26:59.307Z,99599.16
2022-09-13T01:30:00.540Z,99596.56
2022-09-13T01:32:41.353Z,99600.81
2022-09-13T01:35:18.559Z,99615.84
2022-09-13T01:37:55.273Z,99619.53
2022-09-13T01:40:41.995Z,99611.59
2022-09-13T01:43:27.092Z,99600.38
2022-09-13T01:46:03.979Z,99586.34
2022-09-13T02:12:08.113Z,99597.19
2022-09-13T02:14:39.803Z,99612.19
2022-09-13T02:17:11.516Z,99615.94
2022-09-13T02:19:44.376Z,99604.16
2022-09-13T02:22:17.299Z,99608.56
2022-09-13T02:24:49.301Z,99609.44
2022-09-13T02:30:16.302Z,99622.97
2022-09-13T02:32:49.555Z,99616.97
2022-09-13T02:35:21.161Z,99618.97
2022-09-13T02:37:56.389Z,99617.56
2022-09-13T02:40:29.009Z,99621.13
2022-09-13T02:43:02.669Z,99621.66
2022-09-13T03:00:12.861Z,99631.31
2022-09-13T03:02:44.749Z,99640.69
2022-09-13T03:05:13.084Z,99632.19
2022-09-13T03:07:41.016Z,99624.47
2022-09-13T03:10:12.650Z,99625.31
2022-09-13T03:12:56.557Z,99622.69
2022-09-13T03:15:35.263Z,99615.56
2022-09-13T03:18:12.425Z,99612.25
2022-09-13T03:20:47.818Z,99620.22
2022-09-13T03:23:36.500Z,99608.41
2022-09-13T03:26:25.043Z,99598.78
2022-09-13T03:29:03.984Z,99593.81
2022-09-13T03:31:38.214Z,99597.00
2022-09-13T03:34:12.288Z,99591.31
2022-09-13T03:36:46.796Z,99584.88
2022-09-13T03:39:21.921Z,99595.16
2022-09-13T03:41:55.700Z,99590.06
2022-09-13T03:44:27.602Z,99595.31
2022-09-13T03:47:02.669Z,99594.88
2022-09-13T03:49:32.728Z,99593.91
2022-09-13T03:52:01.191Z,99583.47
2022-09-13T03:54:32.279Z,99581.00
2022-09-13T03:57:11.713Z,99582.91
2022-09-13T03:59:42.851Z,99583.19
2022-09-13T04:02:12.875Z,99571.63
2022-09-13T04:04:42.620Z,99576.47
2022-09-13T04:07:12.735Z,99573.94
2022-09-13T04:09:40.651Z,99575.03
2022-09-13T04:12:10.117Z,99567.06
2022-09-13T04:14:38.334Z,99564.16
2022-09-13T04:17:06.884Z,99570.59
2022-09-13T04:19:36.263Z,99559.84
2022-09-13T04:22:04.354Z,99567.72
2022-09-13T04:24:32.668Z,99566.34
2022-09-13T04:27:01.133Z,99563.59
2022-09-13T04:29:28.892Z,99554.63
2022-09-13T04:31:57.024Z,99561.47
2022-09-13T04:34:24.912Z,99567.84
2022-09-13T04:36:54.750Z,99567.97
2022-09-13T04:39:23.921Z,99572.66
2022-09-13T04:41:54.867Z,99576.94
2022-09-13T04:44:24.339Z,99583.53
2022-09-13T04:46:53.700Z,99588.47
2022-09-13T04:49:22.083Z,99586.38
2022-09-13T04:51:50.259Z,99591.47
2022-09-13T04:54:19.598Z,99586.13
2022-09-13T04:56:49.163Z,99591.34
2022-09-13T04:59:19.981Z,99598.41
2022-09-13T05:01:48.135Z,99594.72
2022-09-13T05:04:16.938Z,99603.56
2022-09-13T05:06:44.767Z,99609.22
2022-09-13T05:09:15.424Z,99612.41
2022-09-13T05:11:44.782Z,99623.41
2022-09-13T05:14:13.340Z,99615.28
2022-09-13T05:16:41.472Z,99615.34
2022-09-13T05:19:12.056Z,99618.53
2022-09-13T05:21:40.117Z,99602.06
2022-09-13T05:24:08.181Z,99603.53
2022-09-13T05:26:36.634Z,99613.03
2022-09-13T05:29:06.669Z,99613.25
2022-09-13T05:31:36.612Z,99619.34
2022-09-13T05:34:07.495Z,99615.34
2022-09-13T05:36:35.456Z,99610.03
2022-09-13T05:41:51.682Z,99618.63
2022-09-13T05:44:21.118Z,99619.72
2022-09-13T05:46:49.269Z,99628.56
2022-09-13T05:49:17.342Z,99637.94
2022-09-13T05:51:45.378Z,99637.47
2022-09-13T05:54:14.054Z,99639.78
2022-09-13T05:56:42.101Z,99637.28
2022-09-13T05:59:13.681Z,99645.22
2022-09-13T06:01:43.125Z,99639.16
2022-09-13T06:04:12.676Z,99638.00
2022-09-13T06:06:40.834Z,99632.66
2022-09-13T06:09:09.357Z,99637.59
2022-09-13T06:11:37.380Z,99636.66
2022-09-13T06:14:05.169Z,99630.94
2022-09-13T06:16:33.246Z,99633.28
2022-09-13T06:19:02.710Z,99631.16
2022-09-13T06:21:30.629Z,99631.53
2022-09-13T06:23:58.626Z,99628.66
2022-09-13T06:26:28.312Z,99624.44
2022-09-13T06:28:58.862Z,99624.31
2022-09-13T06:31:28.780Z,99616.25
2022-09-13T06:33:58.728Z,99619.06
2022-09-13T06:36:28.711Z,99619.22
2022-09-13T06:38:57.092Z,99624.03
2022-09-13T06:41:27.193Z,99625.50
2022-09-13T06:43:57.639Z,99623.88
2022-09-13T06:46:26.874Z,99615.47
2022-09-13T06:48:55.629Z,99629.44
2022-09-13T06:51:25.138Z,99638.84
2022-09-13T06:53:56.804Z,99640.47
2022-09-13T06:56:26.582Z,99648.59
2022-09-13T06:58:57.993Z,99658.28
2022-09-13T07:01:28.321Z,99666.75
2022-09-13T07:04:00.043Z,99666.31
2022-09-13T07:06:29.412Z,99667.91
2022-09-13T07:09:00.461Z,99661.63
2022-09-13T07:11:31.351Z,99662.41
2022-09-13T07:14:01.090Z,99662.03
2022-09-13T07:16:31.197Z,99662.19
2022-09-13T07:19:00.737Z,99674.38
2022-09-13T07:21:30.046Z,99676.63
2022-09-13T07:23:59.870Z,99676.53
2022-09-13T07:26:28.831Z,99673.66
2022-09-13T07:29:00.234Z,99686.69
2022-09-13T07:31:30.307Z,99677.84
2022-09-13T07:34:00.432Z,99673.41
2022-09-13T07:36:30.420Z,99691.19
2022-09-13T07:39:00.630Z,99670.47
2022-09-13T07:41:30.295Z,99666.97
2022-09-13T07:43:58.997Z,99656.44
2022-09-13T07:46:28.770Z,99657.41
2022-09-13T07:48:58.244Z,99651.31
2022-09-13T07:51:27.794Z,99651.31
2022-09-13T07:53:57.863Z,99633.25
2022-09-13T07:56:28.615Z,99627.34
2022-09-13T07:58:57.464Z,99629.78
2022-09-13T08:01:27.446Z,99624.00
2022-09-13T08:03:56.792Z,99615.63
2022-09-13T08:06:25.850Z,99605.47
2022-09-13T08:08:54.079Z,99598.19
2022-09-13T08:11:24.427Z,99609.13
2022-09-13T08:13:54.641Z,99604.28
2022-09-13T08:16:24.579Z,99604.75
2022-09-13T08:18:54.635Z,99602.13
2022-09-13T08:21:23.675Z,99600.22
2022-09-13T08:23:55.547Z,99591.03
2022-09-13T08:26:23.819Z,99601.56
2022-09-13T08:28:57.587Z,99607.38
2022-09-13T08:31:25.670Z,99620.53
2022-09-13T08:33:54.550Z,99630.81
2022-09-13T08:36:24.168Z,99634.25
2022-09-13T08:38:54.116Z,99639.06
2022-09-13T08:41:48.344Z,99642.38
2022-09-13T08:44:26.594Z,99647.06
2022-09-13T08:46:58.480Z,99654.41
2022-09-13T08:49:31.388Z,99645.31
2022-09-13T08:52:03.225Z,99642.25
2022-09-13T08:54:31.082Z,99639.72
2022-09-13T08:57:05.096Z,99653.13
2022-09-13T08:59:47.723Z,99656.53
2022-09-13T09:02:29.703Z,99643.03
2022-09-13T09:05:05.351Z,99638.31
2022-09-13T09:07:38.324Z,99636.91
2022-09-13T09:10:09.127Z,99626.19
2022-09-13T09:12:40.601Z,99628.66
2022-09-13T09:15:17.571Z,99619.75
2022-09-13T09:17:55.398Z,99622.56
2022-09-13T09:20:28.886Z,99625.00
2022-09-13T09:22:56.857Z,99619.84
2022-09-13T09:25:26.767Z,99620.19
2022-09-13T09:27:54.968Z,99629.94
2022-09-13T09:30:24.262Z,99636.00
2022-09-13T09:33:08.506Z,99633.69
2022-09-13T09:35:47.637Z,99629.28
2022-09-13T09:38:32.591Z,99623.06
2022-09-13T09:41:03.974Z,99623.28
2022-09-13T09:43:37.714Z,99627.09
2022-09-13T09:46:10.428Z,99618.41
2022-09-13T09:48:45.792Z,99621.03
2022-09-13T09:51:16.249Z,99636.22
2022-09-13T09:53:48.265Z,99636.59
2022-09-13T09:56:24.540Z,99638.09
2022-09-13T09:58:54.354Z,99649.03
2022-09-13T10:01:26.666Z,99647.56
2022-09-13T10:04:06.080Z,99644.59
2022-09-13T10:06:34.426Z,99642.94
2022-09-13T10:09:06.115Z,99622.03
2022-09-13T10:11:46.013Z,99626.25
2022-09-13T10:14:38.228Z,99629.59
2022-09-13T10:17:17.216Z,99629.56
2022-09-13T10:19:59.361Z,99634.22
2022-09-13T10:22:28.292Z,99637.72
2022-09-13T10:24:56.971Z,99628.81
2022-09-13T10:27:31.127Z,99632.25
2022-09-13T10:30:01.794Z,99639.94
2022-09-13T10:32:32.261Z,99626.31
2022-09-13T10:35:08.914Z,99624.56
2022-09-13T10:37:37.744Z,99627.03
2022-09-13T10:40:09.556Z,99626.63
2022-09-13T10:42:37.694Z,99623.75
2022-09-13T10:45:07.756Z,99627.66
2022-09-13T10:47:40.563Z,99623.31
2022-09-13T10:50:23.512Z,99629.03
2022-09-13T10:52:52.762Z,99643.63
2022-09-13T10:55:39.078Z,99648.88
2022-09-13T10:58:23.856Z,99647.44
2022-09-13T11:01:40.148Z,99648.16
2022-09-13T11:04:45.939Z,99648.13
2022-09-13T11:07:37.919Z,99652.69
2022-09-13T11:10:16.240Z,99655.19
2022-09-13T11:12:51.308Z,99657.78
2022-09-13T11:15:30.435Z,99649.50
2022-09-13T11:18:30.845Z,99639.22
2022-09-13T11:21:08.781Z,99633.97
2022-09-13T11:24:19.171Z,99627.34
2022-09-13T11:26:56.467Z,99639.50
2022-09-13T11:29:48.031Z,99644.63
2022-09-13T11:32:32.560Z,99639.22
2022-09-13T11:35:17.471Z,99640.47
2022-09-13T11:37:55.987Z,99635.19
2022-09-13T11:40:40.672Z,99641.50
2022-09-13T11:43:28.137Z,99632.88
2022-09-13T11:46:04.596Z,99634.78
2022-09-13T11:48:49.207Z,99624.00
2022-09-13T11:51:26.509Z,99611.91
2022-09-13T11:54:08.792Z,99602.75
2022-09-13T11:56:41.825Z,99602.34
2022-09-13T11:59:19.798Z,99600.38
2022-09-13T12:01:53.182Z,99600.53
2022-09-13T12:04:28.525Z,99592.72
2022-09-13T12:07:02.154Z,99590.47
2022-09-13T12:09:36.312Z,99595.94
2022-09-13T12:12:08.377Z,99594.13
2022-09-13T12:14:47.214Z,99582.19
2022-09-13T12:17:27.445Z,99571.31
2022-09-13T12:19:59.198Z,99571.25
2022-09-13T12:22:31.376Z,99575.84
2022-09-13T12:25:03.587Z,99584.91
2022-09-13T12:27:40.605Z,99577.63
2022-09-13T12:30:16.047Z,99573.94
2022-09-13T12:32:45.054Z,99565.72
2022-09-13T12:35:22.117Z,99574.50
2022-09-13T12:38:17.124Z,99565.66
2022-09-13T12:40:59.161Z,99571.50
2022-09-13T12:43:51.820Z,99572.16
2022-09-13T12:46:37.944Z,99558.69
2022-09-13T12:49:25.826Z,99556.84
2022-09-13T12:52:07.892Z,99550.66
2022-09-13T12:54:50.069Z,99561.25
2022-09-13T12:57:31.857Z,99564.28
2022-09-13T13:00:19.458Z,99564.44
2022-09-13T13:03:00.464Z,99566.00
2022-09-13T13:05:31.951Z,99562.41
2022-09-13T13:08:02.460Z,99557.56
2022-09-13T13:10:33.441Z,99557.47
2022-09-13T13:13:12.906Z,99557.63
2022-09-13T13:16:26.496Z,99556.28
2022-09-13T13:18:56.394Z,99550.72
2022-09-13T13:21:37.152Z,99558.53
2022-09-13T13:24:39.848Z,99558.50
2022-09-13T13:27:37.458Z,99549.16
2022-09-13T13:30:42.815Z,99551.13
2022-09-13T13:33:21.706Z,99544.44
2022-09-13T13:35:50.342Z,99536.50
2022-09-13T13:38:38.628Z,99545.50
2022-09-13T13:41:12.825Z,99535.88
2022-09-13T13:43:41.397Z,99529.78
2022-09-13T13:46:26.717Z,99518.50
2022-09-13T13:48:56.950Z,99513.66
2022-09-13T13:51:27.535Z,99509.41
2022-09-13T13:54:03.492Z,99511.22
2022-09-13T13:56:47.948Z,99511.44
2022-09-13T13:59:27.282Z,99509.81
2022-09-13T14:02:02.008Z,99501.50
2022-09-13T14:05:08.886Z,99502.19
2022-09-13T14:10:45.152Z,99501.34
2022-09-13T14:13:36.375Z,99504.34
2022-09-13T14:16:11.339Z,99493.28
2022-09-13T14:18:53.709Z,99502.25
2022-09-13T14:21:26.674Z,99505.38
2022-09-13T14:24:18.021Z,99495.72
2022-09-13T14:26:46.975Z,99498.88
2022-09-13T14:29:19.498Z,99501.47
2022-09-13T14:31:48.848Z,99505.22
2022-09-13T14:34:25.672Z,99494.44
2022-09-13T14:36:58.175Z,99492.16
2022-09-13T14:39:27.649Z,99475.03
2022-09-13T14:42:03.169Z,99472.59
2022-09-13T14:44:31.637Z,99473.34
2022-09-13T14:47:07.993Z,99451.72
2022-09-13T14:49:41.202Z,99450.31
2022-09-13T14:52:18.681Z,99447.72
2022-09-13T14:54:52.829Z,99457.00
2022-09-13T14:57:28.751Z,99455.75
2022-09-13T14:59:59.866Z,99448.47
2022-09-13T15:02:33.357Z,99451.31
2022-09-13T15:05:02.346Z,99446.28
2022-09-13T15:08:13.815Z,99440.25
2022-09-13T15:10:45.839Z,99425.88
2022-09-13T15:13:13.646Z,99429.44
2022-09-13T15:15:43.096Z,99437.31
2022-09-13T15:18:26.078Z,99437.97
2022-09-13T15:20:56.141Z,99437.41
2022-09-13T15:23:28.130Z,99444.63
2022-09-13T15:26:02.556Z,99437.69
2022-09-13T15:28:33.910Z,99446.22
2022-09-13T15:31:02.882Z,99431.22
2022-09-13T15:33:32.763Z,99431.78
2022-09-13T15:36:29.960Z,99423.28
2022-09-13T15:39:03.238Z,99416.31
2022-09-13T15:41:34.060Z,99412.25
2022-09-13T15:44:03.547Z,99410.06
2022-09-13T15:46:32.634Z,99405.88
2022-09-13T15:49:05.320Z,99406.88
2022-09-13T15:51:39.006Z,99408.63
2022-09-13T15:54:13.957Z,99397.72
2022-09-13T15:56:46.718Z,99396.56
2022-09-13T15:59:15.558Z,99408.38
2022-09-13T16:01:43.898Z,99403.75
2022-09-13T16:04:11.834Z,99402.38
2022-09-13T16:06:40.446Z,99390.75
2022-09-13T16:09:17.138Z,99389.56
2022-09-13T16:11:46.989Z,99386.72
2022-09-13T16:14:15.050Z,99389.78
2022-09-13T16:16:43.046Z,99387.31
2022-09-13T16:19:16.093Z,99391.38
2022-09-13T16:21:44.120Z,99390.97
2022-09-13T16:24:12.118Z,99390.34
2022-09-13T16:26:41.348Z,99387.72
2022-09-13T16:29:11.551Z,99388.31
2022-09-13T16:31:39.389Z,99392.00
2022-09-13T16:34:07.363Z,99382.22
2022-09-13T16:36:35.268Z,99379.75
2022-09-13T16:39:03.374Z,99388.25
2022-09-13T16:41:31.650Z,99380.88
2022-09-13T16:44:00.018Z,99381.25
2022-09-13T16:46:30.836Z,99390.69
2022-09-13T16:48:59.258Z,99389.25
2022-09-13T16:51:28.037Z,99387.69
2022-09-13T16:53:56.216Z,99385.81
2022-09-13T16:56:25.720Z,99386.41
2022-09-13T16:58:54.705Z,99384.94
2022-09-13T17:01:24.729Z,99394.13
2022-09-13T17:03:55.198Z,99391.59
2022-09-13T17:06:24.871Z,99388.72
2022-09-13T17:08:55.457Z,99389.56
2022-09-13T17:11:26.726Z,99393.38
2022-09-13T17:13:55.126Z,99401.41
2022-09-13T17:16:27.398Z,99404.63
2022-09-13T17:18:58.314Z,99402.34
2022-09-13T17:21:26.905Z,99399.09
2022-09-13T17:23:55.671Z,99395.78
2022-09-13T17:26:24.122Z,99390.38
2022-09-13T17:28:53.381Z,99394.41
2022-09-13T17:31:21.975Z,99394.63
2022-09-13T17:33:50.382Z,99401.94
2022-09-13T17:36:21.019Z,99391.94
2022-09-13T17:38:49.366Z,99390.59
2022-09-13T17:41:19.232Z,99394.56
2022-09-13T17:43:48.027Z,99399.41
2022-09-13T17:46:17.848Z,99401.06
2022-09-13T17:48:46.954Z,99408.56
2022-09-13T17:51:17.545Z,99405.25
2022-09-13T17:53:49.674Z,99407.81
2022-09-13T17:56:19.699Z,99400.47
2022-09-13T17:58:48.146Z,99401.91
2022-09-13T18:01:18.107Z,99400.00
2022-09-13T18:03:46.491Z,99400.78
2022-09-13T18:06:15.176Z,99406.38
2022-09-13T18:08:43.519Z,99398.53
2022-09-13T18:11:19.456Z,99396.09
2022-09-13T18:13:50.040Z,99395.75
2022-09-13T18:16:21.421Z,99400.13
2022-09-13T18:18:51.551Z,99396.41
2022-09-13T18:21:24.394Z,99386.44
2022-09-13T18:23:54.882Z,99392.19
2022-09-13T18:26:25.886Z,99374.88
2022-09-13T18:28:56.016Z,99377.09
2022-09-13T18:31:25.139Z,99375.53
2022-09-13T18:33:56.854Z,99369.34
2022-09-13T18:36:26.036Z,99366.25
2022-09-13T18:38:55.589Z,99366.25
2022-09-13T18:41:30.792Z,99375.28
2022-09-13T18:43:59.880Z,99376.13
2022-09-13T18:46:31.844Z,99384.22
2022-09-13T18:49:03.655Z,99385.84
2022-09-13T18:51:35.078Z,99391.13
2022-09-13T18:54:04.609Z,99389.47
2022-09-13T18:56:38.063Z,99381.00
2022-09-13T18:59:07.702Z,99397.31
2022-09-13T19:01:38.475Z,99396.03
2022-09-13T19:04:08.646Z,99396.03
2022-09-13T19:06:39.206Z,99396.75
2022-09-13T19:09:08.745Z,99397.00
2022-09-13T19:11:49.113Z,99405.13
2022-09-13T19:14:19.270Z,99388.63
2022-09-13T19:16:47.246Z,99390.97
2022-09-13T19:19:15.859Z,99391.06
2022-09-13T19:21:44.925Z,99380.72
2022-09-13T19:24:18.424Z,99377.56
2022-09-13T19:26:52.073Z,99374.09
2022-09-13T19:29:22.090Z,99364.63
2022-09-13T19:31:52.686Z,99365.44
2022-09-13T19:34:22.836Z,99364.63
2022-09-13T19:36:57.635Z,99370.03
2022-09-13T19:39:30.082Z,99367.47
2022-09-13T19:42:01.457Z,99382.09
2022-09-13T19:44:29.989Z,99382.47
2022-09-13T19:49:50.242Z,99373.81
2022-09-13T19:52:18.679Z,99382.84
2022-09-13T19:54:46.560Z,99378.94
2022-09-13T19:57:16.484Z,99387.13
2022-09-13T19:59:45.200Z,99378.97
2022-09-13T20:02:15.043Z,99387.84
2022-09-13T20:04:43.592Z,99379.72
2022-09-13T20:07:13.534Z,99388.78
2022-09-13T20:09:42.478Z,99379.53
2022-09-13T20:12:12.780Z,99384.47
2022-09-13T20:14:43.133Z,99372.56
2022-09-13T20:17:11.574Z,99370.38
2022-09-13T20:19:42.831Z,99370.81
2022-09-13T20:22:15.601Z,99370.28
2022-09-13T20:24:47.122Z,99366.09
2022-09-13T20:27:15.941Z,99374.47
2022-09-13T20:29:51.746Z,99380.13
2022-09-13T20:32:20.833Z,99382.00
2022-09-13T20:34:50.105Z,99382.94
2022-09-13T20:37:18.667Z,99389.38
2022-09-13T20:39:49.118Z,99394.66
2022-09-13T20:42:17.811Z,99402.03
2022-09-13T20:44:46.548Z,99395.19
2022-09-13T20:47:18.267Z,99392.34
2022-09-13T20:49:46.861Z,99388.22
2022-09-13T20:52:14.871Z,99375.47
2022-09-13T20:54:43.309Z,99375.22
2022-09-13T20:57:14.461Z,99367.78
2022-09-13T20:59:43.556Z,99369.13
2022-09-13T21:16:45.887Z,99342.91
2022-09-13T21:28:16.045Z,99331.22
2022-09-13T21:30:44.068Z,99328.53
2022-09-13T21:33:13.737Z,99326.34
2022-09-13T21:35:41.795Z,99332.16
2022-09-13T21:38:11.330Z,99336.66
2022-09-13T21:40:39.294Z,99336.44
2022-09-13T21:43:07.257Z,99337.09
2022-09-13T21:45:35.056Z,99341.03
2022-09-13T21:48:03.340Z,99336.31
2022-09-13T21:50:33.158Z,99326.22
2022-09-13T21:53:01.399Z,99325.38
2022-09-13T21:55:31.321Z,99311.31
2022-09-13T21:57:59.487Z,99304.84
2022-09-13T22:00:27.422Z,99300.16
2022-09-13T22:02:55.776Z,99298.91
2022-09-13T22:05:23.670Z,99281.53
2022-09-13T22:07:53.868Z,99272.63
2022-09-13T22:10:21.854Z,99271.06
2022-09-13T22:12:49.909Z,99263.28
2022-09-13T22:15:18.543Z,99258.94
2022-09-13T22:17:46.342Z,99255.44
2022-09-13T22:20:15.135Z,99252.44
